Time;durP1;ratioP1;P1;durP2;ratioP2;P2;SDS_P1;SDS_P2;PMS_P1;PMS_P2;Temp;Humidity;BMP_temperature;BMP_pressure;BME280_temperature;BME280_humidity;BME280_pressure;Samples;Min_cycle;Max_cycle;Signal;HPM_P1;HPM_P2
2023/04/04 00:01:57;;;;;;;;;;;;;;;9.17;89.30;93760.38;4936601;29;999;-55
2023/04/04 00:04:23;;;;;;;;;;;;;;;8.96;90.72;93768.31;4936268;29;1146;-55
2023/04/04 00:06:50;;;;;;;;;;;;;;;9.01;91.05;93760.59;4936668;29;972;-55
2023/04/04 00:09:17;;;;;;;;;;;;;;;9.12;89.15;93768.09;4947742;29;1184;-55
2023/04/04 00:11:43;;;;;;;;;;;;;;;9.15;89.73;93775.75;4955709;29;991;-55
2023/04/04 00:14:09;;;;;;;;;;;;;;;8.95;91.58;93779.97;4955476;29;1038;-55
2023/04/04 00:16:35;;;;;;;;;;;;;;;8.92;92.93;93777.72;4955166;29;1910;-54
2023/04/04 00:19:01;;;;;;;;;;;;;;;8.84;92.77;93781.28;4955563;29;1076;-55
2023/04/04 00:21:27;;;;;;;;;;;;;;;8.85;92.85;93793.59;4955120;29;1102;-56
2023/04/04 00:23:53;;;;;;;;;;;;;;;9.01;92.23;93791.75;4955224;29;1304;-55
2023/04/04 00:26:20;;;;;;;;;;;;;;;9.01;92.00;93773.94;4955281;29;972;-55
2023/04/04 00:28:46;;;;;;;;;;;;;;;9.02;91.70;93766.75;4955297;29;1011;-55
2023/04/04 00:31:12;;;;;;;;;;;;;;;8.98;92.88;93761.78;4954997;29;1213;-55
2023/04/04 00:33:38;;;;;;;;;;;;;;;9.02;91.90;93753.44;4955179;29;1007;-55
2023/04/04 00:36:04;;;;;;;;;;;;;;;9.01;92.92;93755.28;4955132;29;1246;-55
2023/04/04 00:38:30;;;;;;;;;;;;;;;9.07;92.84;93753.69;4955100;29;1911;-55
2023/04/04 00:40:56;;;;;;;;;;;;;;;9.02;93.53;93742.78;4955215;29;1027;-55
2023/04/04 00:43:22;;;;;;;;;;;;;;;8.82;94.54;93739.84;4954993;29;1978;-55
2023/04/04 00:45:50;;;;;;;;;;;;;;;8.64;96.14;93726.91;4955065;29;1096;-55
2023/04/04 00:48:17;;;;;;;;;;;;;;;8.61;95.98;93698.75;4954873;29;1066;-55
2023/04/04 00:50:43;;;;;;;;;;;;;;;8.72;96.22;93687.66;4954931;29;1028;-55
2023/04/04 00:53:09;;;;;;;;;;;;;;;8.81;95.50;93696.38;4957954;28;1114;-55
2023/04/04 00:55:38;;;;;;;;;;;;;;;8.86;94.99;93709.97;4959037;29;1097;-55
2023/04/04 00:58:04;;;;;;;;;;;;;;;8.70;95.26;93700.31;4958715;29;1992;-55
2023/04/04 01:00:39;;;;;;;;;;;;;;;8.62;95.86;93703.09;4959002;29;1028;-55
2023/04/04 01:03:06;;;;;;;;;;;;;;;8.62;95.30;93702.28;4958898;29;1003;-56
2023/04/04 01:05:32;;;;;;;;;;;;;;;8.66;95.14;93709.72;4958644;29;1079;-55
2023/04/04 01:08:00;;;;;;;;;;;;;;;8.57;95.39;93702.81;4957912;29;1149;-56
2023/04/04 01:10:26;;;;;;;;;;;;;;;8.53;96.37;93709.53;4939423;29;1027;-55
2023/04/04 01:12:51;;;;;;;;;;;;;;;8.65;96.05;93697.41;4939701;29;1030;-55
2023/04/04 01:15:17;;;;;;;;;;;;;;;8.67;95.33;93698.06;4939309;29;1117;-55
2023/04/04 01:17:44;;;;;;;;;;;;;;;8.59;95.89;93698.13;4939517;29;1911;-55
2023/04/04 01:20:13;;;;;;;;;;;;;;;8.37;97.06;93671.38;4939226;29;1043;-55
2023/04/04 01:22:39;;;;;;;;;;;;;;;8.45;97.53;93701.63;4939447;29;1043;-55
2023/04/04 01:25:06;;;;;;;;;;;;;;;8.34;97.71;93710.88;4939484;29;1029;-55
2023/04/04 01:27:32;;;;;;;;;;;;;;;8.23;98.03;93711.31;4939383;29;1050;-55
2023/04/04 01:29:59;;;;;;;;;;;;;;;8.12;98.37;93717.91;4939078;29;991;-55
2023/04/04 01:32:43;;;;;;;;;;;;;;;8.16;98.42;93720.03;4939158;29;994;-55
2023/04/04 01:35:19;;;;;;;;;;;;;;;8.11;98.56;93722.41;4939247;29;976;-55
2023/04/04 01:37:58;;;;;;;;;;;;;;;8.12;98.46;93729.41;4939059;29;1978;-55
2023/04/04 01:40:26;;;;;;;;;;;;;;;8.14;98.25;93727.38;4939136;29;1055;-55
2023/04/04 01:42:52;;;;;;;;;;;;;;;8.11;98.41;93721.59;4938824;29;1051;-55
2023/04/04 01:45:21;;;;;;;;;;;;;;;8.22;97.84;93723.81;4938791;29;1266;-56
2023/04/04 01:47:47;;;;;;;;;;;;;;;8.31;97.32;93720.06;4939003;29;1035;-55
2023/04/04 01:50:15;;;;;;;;;;;;;;;8.42;96.19;93724.13;4938902;29;1077;-56
2023/04/04 01:52:41;;;;;;;;;;;;;;;8.55;95.76;93715.50;4938946;29;983;-56
2023/04/04 01:55:07;;;;;;;;;;;;;;;8.66;95.46;93720.34;4938604;29;1039;-56
2023/04/04 01:57:33;;;;;;;;;;;;;;;8.69;95.56;93724.47;4938627;29;1911;-55
2023/04/04 01:59:59;;;;;;;;;;;;;;;8.69;95.42;93729.81;4938557;29;1317;-55
2023/04/04 02:02:25;;;;;;;;;;;;;;;8.65;96.08;93724.06;4938308;29;1023;-55
2023/04/04 02:04:52;;;;;;;;;;;;;;;8.69;95.37;93716.50;4937603;29;1884;-55
2023/04/04 02:07:18;;;;;;;;;;;;;;;8.64;95.88;93724.22;4938448;29;1013;-56
2023/04/04 02:09:44;;;;;;;;;;;;;;;8.76;95.52;93717.41;4953353;29;1157;-55
2023/04/04 02:12:10;;;;;;;;;;;;;;;8.88;94.20;93718.63;4957448;29;1043;-55
2023/04/04 02:14:36;;;;;;;;;;;;;;;8.76;95.01;93707.59;4957738;29;1054;-56
2023/04/04 02:17:02;;;;;;;;;;;;;;;8.70;95.72;93718.16;4957451;29;1906;-55
2023/04/04 02:19:29;;;;;;;;;;;;;;;8.57;96.63;93705.47;4957614;29;1025;-55
2023/04/04 02:21:55;;;;;;;;;;;;;;;8.51;97.26;93715.03;4957303;29;1032;-55
2023/04/04 02:24:21;;;;;;;;;;;;;;;8.60;96.73;93711.28;4957233;29;1039;-56
2023/04/04 02:26:47;;;;;;;;;;;;;;;8.54;96.85;93713.84;4957490;29;975;-56
2023/04/04 02:29:13;;;;;;;;;;;;;;;8.38;97.90;93709.47;4957497;29;1043;-56
2023/04/04 02:31:39;;;;;;;;;;;;;;;8.33;99.13;93715.38;4957368;29;1042;-56
2023/04/04 02:34:05;;;;;;;;;;;;;;;8.29;99.65;93714.09;4948892;29;1011;-55
2023/04/04 02:36:31;;;;;;;;;;;;;;;8.32;99.78;93718.22;4937859;29;1895;-54
2023/04/04 02:38:57;;;;;;;;;;;;;;;8.34;99.17;93711.69;4938122;29;1028;-54
2023/04/04 02:41:23;;;;;;;;;;;;;;;8.40;98.87;93723.44;4937953;29;1050;-55
2023/04/04 02:43:50;;;;;;;;;;;;;;;8.32;99.19;93721.69;4937765;29;1098;-55
2023/04/04 02:46:16;;;;;;;;;;;;;;;8.30;99.28;93721.06;4937522;29;1101;-55
2023/04/04 02:48:42;;;;;;;;;;;;;;;8.32;99.37;93724.34;4937992;29;1023;-55
2023/04/04 02:51:08;;;;;;;;;;;;;;;8.44;99.08;93716.78;4937729;29;1018;-55
2023/04/04 02:53:35;;;;;;;;;;;;;;;8.49;98.25;93703.72;4937882;29;983;-55
2023/04/04 02:56:01;;;;;;;;;;;;;;;8.57;97.65;93710.81;4937562;29;980;-55
2023/04/04 02:58:27;;;;;;;;;;;;;;;8.60;97.18;93710.44;4937636;29;1906;-55
2023/04/04 03:00:54;;;;;;;;;;;;;;;8.59;97.24;93708.78;4937386;29;1278;-55
2023/04/04 03:03:20;;;;;;;;;;;;;;;8.50;96.91;93713.41;4937446;29;983;-55
2023/04/04 03:05:48;;;;;;;;;;;;;;;8.41;97.71;93711.78;4937622;29;1016;-55
2023/04/04 03:08:14;;;;;;;;;;;;;;;8.47;97.48;93718.25;4940496;29;1201;-55
2023/04/04 03:10:40;;;;;;;;;;;;;;;8.49;97.62;93714.38;4956720;29;1041;-55
2023/04/04 03:13:06;;;;;;;;;;;;;;;8.38;98.10;93722.81;4956722;29;1055;-55
2023/04/04 03:15:33;;;;;;;;;;;;;;;8.32;99.01;93728.88;4956401;28;1023;-55
2023/04/04 03:18:00;;;;;;;;;;;;;;;8.29;98.69;93718.56;4956334;29;1918;-55
2023/04/04 03:20:26;;;;;;;;;;;;;;;8.23;98.94;93728.09;4956211;29;1075;-55
2023/04/04 03:22:51;;;;;;;;;;;;;;;8.29;98.40;93726.56;4956253;29;1050;-55
2023/04/04 03:25:18;;;;;;;;;;;;;;;8.27;98.44;93726.75;4956372;29;1105;-55
2023/04/04 03:27:44;;;;;;;;;;;;;;;8.34;97.67;93725.00;4956351;29;1027;-55
2023/04/04 03:30:10;;;;;;;;;;;;;;;8.38;97.89;93728.97;4956169;29;1037;-55
2023/04/04 03:32:36;;;;;;;;;;;;;;;8.47;97.81;93731.56;4956095;29;1043;-55
2023/04/04 03:35:02;;;;;;;;;;;;;;;8.53;97.27;93728.16;4956065;29;1037;-55
2023/04/04 03:37:29;;;;;;;;;;;;;;;8.58;97.13;93725.78;4956088;29;1919;-55
2023/04/04 03:39:55;;;;;;;;;;;;;;;8.61;97.22;93728.06;4956136;29;1089;-55
2023/04/04 03:42:21;;;;;;;;;;;;;;;8.51;97.51;93724.88;4955780;29;1090;-55
2023/04/04 03:44:47;;;;;;;;;;;;;;;8.38;98.61;93736.97;4955949;29;1015;-55
2023/04/04 03:47:13;;;;;;;;;;;;;;;8.43;98.79;93733.78;4955578;29;1095;-55
2023/04/04 03:49:39;;;;;;;;;;;;;;;8.57;98.12;93737.44;4955787;29;1879;-55
2023/04/04 03:52:05;;;;;;;;;;;;;;;8.61;97.03;93741.38;4955984;29;963;-55
2023/04/04 03:54:32;;;;;;;;;;;;;;;8.60;97.17;93731.75;4955573;29;1063;-54
2023/04/04 03:56:58;;;;;;;;;;;;;;;8.60;96.49;93737.09;4955769;29;1919;-54
2023/04/04 03:59:24;;;;;;;;;;;;;;;8.66;96.57;93740.84;4955741;29;1034;-54
2023/04/04 04:01:50;;;;;;;;;;;;;;;8.66;96.51;93749.66;4955870;29;995;-54
2023/04/04 04:04:15;;;;;;;;;;;;;;;8.64;96.38;93743.69;4955685;29;1015;-54
2023/04/04 04:06:42;;;;;;;;;;;;;;;8.64;96.37;93743.69;4955533;29;1016;-54
2023/04/04 04:09:11;;;;;;;;;;;;;;;8.64;96.40;93754.34;4945188;29;1204;-54
2023/04/04 04:11:37;;;;;;;;;;;;;;;8.65;96.25;93749.84;4936573;29;1062;-55
2023/04/04 04:14:03;;;;;;;;;;;;;;;8.61;96.58;93752.03;4936439;29;1101;-54
2023/04/04 04:16:29;;;;;;;;;;;;;;;8.58;96.82;93750.59;4936122;29;1029;-54
2023/04/04 04:18:55;;;;;;;;;;;;;;;8.61;96.46;93752.03;4936309;29;987;-55
2023/04/04 04:21:21;;;;;;;;;;;;;;;8.54;96.25;93756.47;4936105;29;1091;-54
2023/04/04 04:23:47;;;;;;;;;;;;;;;8.42;96.76;93763.25;4936182;29;1066;-54
2023/04/04 04:26:13;;;;;;;;;;;;;;;8.35;96.43;93758.63;4935940;29;1046;-56
2023/04/04 04:28:39;;;;;;;;;;;;;;;8.24;97.05;93771.56;4919216;29;1014;-55
2023/04/04 04:31:06;;;;;;;;;;;;;;;8.18;98.32;93765.13;4935979;29;1083;-54
2023/04/04 04:33:32;;;;;;;;;;;;;;;8.15;98.54;93768.13;4936234;29;1055;-54
2023/04/04 04:36:01;;;;;;;;;;;;;;;8.17;98.20;93772.25;4936062;29;1232;-55
2023/04/04 04:38:28;;;;;;;;;;;;;;;8.30;97.86;93763.66;4935808;29;1914;-55
2023/04/04 04:40:54;;;;;;;;;;;;;;;8.44;97.02;93774.53;4935891;29;1095;-56
2023/04/04 04:43:20;;;;;;;;;;;;;;;8.40;97.28;93788.22;4935981;29;999;-54
2023/04/04 04:45:47;;;;;;;;;;;;;;;8.39;98.56;93778.56;4935936;29;1077;-56
2023/04/04 04:48:15;;;;;;;;;;;;;;;8.56;97.13;93779.25;4935768;29;1095;-55
2023/04/04 04:50:42;;;;;;;;;;;;;;;8.67;96.13;93779.78;4936149;29;1050;-56
2023/04/04 04:53:08;;;;;;;;;;;;;;;8.68;95.61;93776.94;4936130;29;1062;-54
2023/04/04 04:55:34;;;;;;;;;;;;;;;8.67;95.96;93775.31;4936007;29;1028;-55
2023/04/04 04:58:00;;;;;;;;;;;;;;;8.64;95.94;93785.50;4935772;29;1918;-55
2023/04/04 05:00:26;;;;;;;;;;;;;;;8.55;96.53;93790.91;4935609;29;1023;-55
2023/04/04 05:02:53;;;;;;;;;;;;;;;8.53;96.43;93797.44;4936065;29;1024;-55
2023/04/04 05:05:19;;;;;;;;;;;;;;;8.60;96.71;93801.03;4935781;29;1053;-54
2023/04/04 05:07:46;;;;;;;;;;;;;;;8.63;96.85;93800.66;4935666;29;978;-55
2023/04/04 05:10:12;;;;;;;;;;;;;;;8.61;96.67;93797.34;4954145;29;1213;-55
2023/04/04 05:12:42;;;;;;;;;;;;;;;8.60;97.41;93795.69;4954994;29;1038;-55
2023/04/04 05:15:08;;;;;;;;;;;;;;;8.57;98.06;93799.56;4954905;29;1022;-55
2023/04/04 05:17:34;;;;;;;;;;;;;;;8.55;97.70;93803.41;4954765;29;1989;-55
2023/04/04 05:20:00;;;;;;;;;;;;;;;8.52;97.39;93809.09;4954729;29;1086;-54
2023/04/04 05:22:27;;;;;;;;;;;;;;;8.60;96.09;93812.50;4954848;29;1036;-55
2023/04/04 05:24:53;;;;;;;;;;;;;;;8.57;94.76;93818.22;4954714;29;1035;-55
2023/04/04 05:27:19;;;;;;;;;;;;;;;8.50;95.04;93817.28;4954792;29;1087;-54
2023/04/04 05:29:46;;;;;;;;;;;;;;;8.49;95.94;93812.94;4954828;29;1202;-54
2023/04/04 05:32:12;;;;;;;;;;;;;;;8.59;95.57;93815.34;4954699;29;1067;-58
2023/04/04 05:34:38;;;;;;;;;;;;;;;8.66;93.77;93815.47;4954713;29;1059;-55
2023/04/04 05:37:04;;;;;;;;;;;;;;;8.62;94.49;93820.31;4954801;29;1914;-55
2023/04/04 05:39:30;;;;;;;;;;;;;;;8.81;94.55;93826.13;4956200;28;1097;-55
2023/04/04 05:41:56;;;;;;;;;;;;;;;8.86;93.87;93827.25;4958257;29;1052;-54
2023/04/04 05:44:22;;;;;;;;;;;;;;;8.89;94.21;93828.72;4957818;29;1043;-53
2023/04/04 05:46:48;;;;;;;;;;;;;;;9.06;92.67;93832.03;4957849;29;1096;-54
2023/04/04 05:49:15;;;;;;;;;;;;;;;9.23;91.29;93833.47;4957803;29;1043;-55
2023/04/04 05:51:41;;;;;;;;;;;;;;;9.27;92.36;93834.75;4956704;29;2087;-55
2023/04/04 05:54:07;;;;;;;;;;;;;;;9.31;90.05;93841.38;4957741;29;1057;-55
2023/04/04 05:56:33;;;;;;;;;;;;;;;9.20;90.23;93841.88;4941219;29;983;-55
2023/04/04 05:58:59;;;;;;;;;;;;;;;9.23;91.10;93843.34;4957825;29;979;-55
2023/04/04 06:01:26;;;;;;;;;;;;;;;9.22;90.78;93844.31;4957671;29;1084;-55
2023/04/04 06:03:52;;;;;;;;;;;;;;;9.17;90.33;93842.22;4957534;29;1105;-55
2023/04/04 06:06:18;;;;;;;;;;;;;;;9.18;91.89;93842.06;4957387;29;1039;-55
2023/04/04 06:08:44;;;;;;;;;;;;;;;9.35;91.68;93845.34;4950713;29;1172;-55
2023/04/04 06:11:10;;;;;;;;;;;;;;;9.48;90.41;93847.34;4938276;29;1118;-55
2023/04/04 06:13:36;;;;;;;;;;;;;;;9.65;87.02;93842.63;4938413;29;1042;-55
2023/04/04 06:16:02;;;;;;;;;;;;;;;9.61;87.39;93846.69;4938116;29;1052;-55
2023/04/04 06:18:28;;;;;;;;;;;;;;;9.73;84.95;93855.88;4937975;29;1911;-55
2023/04/04 06:20:54;;;;;;;;;;;;;;;9.82;86.18;93847.75;4938073;29;976;-55
2023/04/04 06:23:20;;;;;;;;;;;;;;;9.84;84.05;93851.88;4937999;29;1231;-55
2023/04/04 06:25:46;;;;;;;;;;;;;;;9.85;84.78;93850.88;4938239;29;1046;-55
2023/04/04 06:28:14;;;;;;;;;;;;;;;9.96;84.13;93857.56;4937890;29;1222;-54
2023/04/04 06:30:40;;;;;;;;;;;;;;;9.97;83.02;93862.69;4938091;29;980;-55
2023/04/04 06:33:06;;;;;;;;;;;;;;;9.81;84.57;93862.94;4938201;29;1024;-55
2023/04/04 06:35:32;;;;;;;;;;;;;;;9.85;86.45;93858.88;4937815;29;1034;-56
2023/04/04 06:37:59;;;;;;;;;;;;;;;9.99;83.02;93859.84;4938108;29;1907;-55
2023/04/04 06:40:25;;;;;;;;;;;;;;;10.03;82.43;93858.44;4938071;29;1316;-55
2023/04/04 06:42:52;;;;;;;;;;;;;;;10.12;82.74;93864.50;4937785;29;1015;-56
2023/04/04 06:45:18;;;;;;;;;;;;;;;10.21;82.29;93871.38;4936985;29;1128;-56
2023/04/04 06:47:45;;;;;;;;;;;;;;;10.38;81.35;93871.97;4937656;29;1098;-56
2023/04/04 06:50:11;;;;;;;;;;;;;;;10.54;80.52;93870.88;4937276;29;1062;-56
2023/04/04 06:52:37;;;;;;;;;;;;;;;10.69;81.25;93865.47;4937778;29;1033;-57
2023/04/04 06:55:04;;;;;;;;;;;;;;;10.81;79.18;93871.94;4937439;29;1034;-56
2023/04/04 06:57:30;;;;;;;;;;;;;;;10.99;79.02;93870.63;4937291;29;1903;-55
2023/04/04 06:59:56;;;;;;;;;;;;;;;11.05;79.29;93870.66;4937746;29;1048;-55
2023/04/04 07:02:22;;;;;;;;;;;;;;;11.06;78.11;93876.84;4937353;29;1015;-55
2023/04/04 07:04:48;;;;;;;;;;;;;;;11.10;78.82;93862.91;4937333;29;1042;-56
2023/04/04 07:07:15;;;;;;;;;;;;;;;11.27;79.13;93876.78;4937285;29;952;-55
2023/04/04 07:09:41;;;;;;;;;;;;;;;11.31;78.04;93886.06;4951643;29;1211;-56
2023/04/04 07:12:07;;;;;;;;;;;;;;;11.33;77.76;93888.56;4956261;29;1055;-56
2023/04/04 07:14:33;;;;;;;;;;;;;;;11.38;76.26;93890.63;4956488;29;1044;-56
2023/04/04 07:16:59;;;;;;;;;;;;;;;11.16;74.64;93893.38;4956266;29;1906;-56
2023/04/04 07:19:27;;;;;;;;;;;;;;;11.16;75.79;93888.03;4956159;29;1000;-56
2023/04/04 07:21:54;;;;;;;;;;;;;;;11.26;76.73;93893.03;4956217;29;1098;-55
2023/04/04 07:24:20;;;;;;;;;;;;;;;11.22;76.31;93897.94;4956307;29;1035;-55
2023/04/04 07:26:46;;;;;;;;;;;;;;;11.30;76.16;93902.31;4956228;29;1012;-55
2023/04/04 07:29:12;;;;;;;;;;;;;;;11.24;77.11;93905.78;4955919;29;1301;-55
2023/04/04 07:31:38;;;;;;;;;;;;;;;11.17;76.22;93904.91;4956107;29;1031;-55
2023/04/04 07:34:06;;;;;;;;;;;;;;;11.20;75.76;93904.53;4956218;29;1070;-55
2023/04/04 07:36:32;;;;;;;;;;;;;;;11.11;75.58;93918.03;4955864;29;1868;-55
2023/04/04 07:38:58;;;;;;;;;;;;;;;10.96;74.99;93911.94;4955737;29;1906;-55
2023/04/04 07:41:24;;;;;;;;;;;;;;;10.97;78.26;93920.81;4955863;29;1039;-55
2023/04/04 07:43:51;;;;;;;;;;;;;;;11.10;76.24;93921.75;4956025;29;976;-56
2023/04/04 07:46:17;;;;;;;;;;;;;;;11.26;76.20;93927.81;4955439;29;1077;-55
2023/04/04 07:48:43;;;;;;;;;;;;;;;11.09;74.70;93927.28;4955732;29;1011;-55
2023/04/04 07:51:09;;;;;;;;;;;;;;;11.23;76.12;93931.72;4955899;29;1063;-54
2023/04/04 07:53:35;;;;;;;;;;;;;;;11.35;76.30;93926.66;4955872;29;1116;-55
2023/04/04 07:56:07;;;;;;;;;;;;;;;11.48;76.85;93934.75;4955809;29;1059;-55
2023/04/04 07:58:33;;;;;;;;;;;;;;;11.57;75.19;93934.59;4955301;29;1989;-55
2023/04/04 08:01:00;;;;;;;;;;;;;;;11.65;73.74;93929.09;4955216;28;1049;-56
2023/04/04 08:03:26;;;;;;;;;;;;;;;11.75;73.38;93939.44;4955123;29;2052;-55
2023/04/04 08:05:52;;;;;;;;;;;;;;;11.65;73.53;93935.28;4955717;29;1014;-56
2023/04/04 08:08:18;;;;;;;;;;;;;;;11.52;71.10;93944.03;4951851;29;1168;-55
2023/04/04 08:10:44;;;;;;;;;;;;;;;11.67;73.37;93937.75;4936190;29;1847;-55
2023/04/04 08:13:11;;;;;;;;;;;;;;;11.84;73.34;93941.75;4936207;29;1051;-55
2023/04/04 08:15:37;;;;;;;;;;;;;;;12.18;72.78;93940.09;4936066;29;1031;-55
2023/04/04 08:18:04;;;;;;;;;;;;;;;12.32;70.03;93942.81;4936039;29;2005;-56
2023/04/04 08:20:30;;;;;;;;;;;;;;;12.40;70.42;93947.97;4935977;29;1608;-57
2023/04/04 08:22:57;;;;;;;;;;;;;;;12.10;66.79;93942.94;4936245;29;968;-57
2023/04/04 08:25:23;;;;;;;;;;;;;;;12.06;69.22;93942.50;4936143;29;1038;-57
2023/04/04 08:27:50;;;;;;;;;;;;;;;12.15;71.08;93942.34;4935956;29;1035;-57
2023/04/04 08:30:16;;;;;;;;;;;;;;;12.29;71.22;93944.03;4936223;29;1019;-57
2023/04/04 08:32:44;;;;;;;;;;;;;;;12.36;71.55;93954.78;4935977;29;1059;-57
2023/04/04 08:35:11;;;;;;;;;;;;;;;12.53;71.03;93956.06;4935988;29;1045;-56
2023/04/04 08:37:38;;;;;;;;;;;;;;;12.58;69.99;93955.47;4936154;29;1997;-56
2023/04/04 08:40:05;;;;;;;;;;;;;;;12.60;69.93;93959.59;4935983;29;1044;-57
2023/04/04 08:42:32;;;;;;;;;;;;;;;12.49;70.64;93952.13;4935925;29;1026;-56
2023/04/04 08:45:00;;;;;;;;;;;;;;;12.44;70.76;93954.59;4935875;29;1119;-58
2023/04/04 08:47:29;;;;;;;;;;;;;;;12.40;69.79;93966.75;4935869;29;1008;-56
2023/04/04 08:49:55;;;;;;;;;;;;;;;12.25;71.00;93962.34;4935935;29;1922;-56
2023/04/04 08:52:24;;;;;;;;;;;;;;;12.08;70.70;93969.09;4935967;29;1047;-56
2023/04/04 08:54:50;;;;;;;;;;;;;;;11.97;71.78;93964.28;4935996;29;1051;-57
2023/04/04 08:57:16;;;;;;;;;;;;;;;11.56;72.78;93981.13;4935554;29;2001;-56
2023/04/04 08:59:42;;;;;;;;;;;;;;;11.35;75.29;93984.69;4935786;29;968;-56
2023/04/04 09:02:08;;;;;;;;;;;;;;;11.00;73.19;93979.25;4936133;29;1003;-56
2023/04/04 09:04:35;;;;;;;;;;;;;;;10.66;74.67;93986.97;4935992;29;964;-56
2023/04/04 09:07:02;;;;;;;;;;;;;;;10.68;74.10;93989.44;4935895;29;1206;-56
2023/04/04 09:09:30;;;;;;;;;;;;;;;10.61;75.62;93986.72;4948446;29;1149;-57
2023/04/04 09:11:56;;;;;;;;;;;;;;;10.79;75.63;93993.44;4955099;29;1056;-54
2023/04/04 09:14:23;;;;;;;;;;;;;;;10.86;73.44;93995.16;4925353;29;985;-53
2023/04/04 09:16:49;;;;;;;;;;;;;;;10.84;72.98;93996.41;4958625;29;1918;-53
2023/04/04 09:19:15;;;;;;;;;;;;;;;10.70;73.06;94001.59;4958666;29;1047;-55
2023/04/04 09:21:45;;;;;;;;;;;;;;;10.69;72.06;93997.25;4958738;29;980;-57
2023/04/04 09:24:11;;;;;;;;;;;;;;;10.39;71.54;94009.06;4958599;29;972;-56
2023/04/04 09:26:47;;;;;;;;;;;;;;;10.27;72.31;94000.69;4958452;29;1024;-56
2023/04/04 09:29:13;;;;;;;;;;;;;;;10.28;73.68;94008.50;4958167;29;1677;-55
2023/04/04 09:31:40;;;;;;;;;;;;;;;10.32;72.90;94008.97;4958430;29;975;-56
2023/04/04 09:34:06;;;;;;;;;;;;;;;10.39;73.55;94012.56;4958448;29;1034;-53
2023/04/04 09:36:32;;;;;;;;;;;;;;;10.44;72.90;94020.84;4958504;29;1862;-53
2023/04/04 09:38:58;;;;;;;;;;;;;;;10.33;71.47;94019.47;4958274;29;1906;-53
2023/04/04 09:41:25;;;;;;;;;;;;;;;10.18;73.58;94017.81;4957972;29;1231;-54
2023/04/04 09:43:51;;;;;;;;;;;;;;;10.02;72.77;94021.53;4958051;29;1035;-53
2023/04/04 09:50:20;;;;;;;;;;;;;;;9.65;72.64;94028.59;4919800;29;803;-53
2023/04/04 09:52:47;;;;;;;;;;;;;;;9.81;72.55;94023.09;4919929;29;1034;-53
2023/04/04 09:55:13;;;;;;;;;;;;;;;9.92;71.89;94029.81;4919706;29;976;-53
2023/04/04 09:57:40;;;;;;;;;;;;;;;9.95;71.76;94024.09;4919800;29;1993;-52
2023/04/04 10:00:08;;;;;;;;;;;;;;;9.89;72.74;94027.53;4919550;29;1059;-53
2023/04/04 10:02:36;;;;;;;;;;;;;;;10.01;71.88;94030.53;4919429;29;1044;-53
2023/04/04 10:05:03;;;;;;;;;;;;;;;10.06;71.70;94026.31;4919787;29;1296;-53
2023/04/04 10:07:29;;;;;;;;;;;;;;;9.95;71.26;94035.59;4919336;29;1051;-53
2023/04/04 10:09:56;;;;;;;;;;;;;;;9.87;71.61;94040.22;4903307;29;1165;-53
2023/04/04 10:12:25;;;;;;;;;;;;;;;9.83;72.65;94042.44;4900719;29;972;-53
2023/04/04 10:14:57;;;;;;;;;;;;;;;9.90;73.95;94042.50;4900507;29;1199;-53
2023/04/04 10:17:29;;;;;;;;;;;;;;;9.96;73.31;94047.97;4900375;29;1992;-53
2023/04/04 10:19:56;;;;;;;;;;;;;;;9.97;72.11;94051.44;4900637;29;1055;-53
2023/04/04 10:22:22;;;;;;;;;;;;;;;9.91;72.50;94057.53;4900541;29;1023;-53
2023/04/04 10:24:48;;;;;;;;;;;;;;;9.94;71.89;94051.81;4899671;29;999;-53
2023/04/04 10:27:15;;;;;;;;;;;;;;;9.96;71.88;94061.31;4900476;29;1051;-54
2023/04/04 10:29:41;;;;;;;;;;;;;;;10.00;72.58;94059.09;4900176;29;1095;-53
2023/04/04 10:32:11;;;;;;;;;;;;;;;10.00;72.28;94058.25;4900538;29;963;-53
2023/04/04 10:34:41;;;;;;;;;;;;;;;10.18;70.80;94064.06;4900365;29;1062;-53
2023/04/04 10:37:11;;;;;;;;;;;;;;;10.20;70.54;94070.03;4900279;29;1915;-54
2023/04/04 10:39:59;;;;;;;;;;;;;;;10.32;71.20;94065.94;4900213;29;1125;-54
2023/04/04 10:42:29;;;;;;;;;;;;;;;10.20;69.95;94075.38;4900104;29;1023;-53
2023/04/04 10:44:55;;;;;;;;;;;;;;;10.15;70.12;94078.63;4899897;29;1027;-53
2023/04/04 10:47:22;;;;;;;;;;;;;;;10.11;70.23;94088.00;4900006;29;1035;-54
2023/04/04 10:49:49;;;;;;;;;;;;;;;10.21;71.46;94082.38;4934861;29;1257;-54
2023/04/04 10:52:16;;;;;;;;;;;;;;;10.40;71.44;94090.91;4937504;29;1019;-54
2023/04/04 10:54:43;;;;;;;;;;;;;;;10.59;69.51;94092.16;4937413;29;984;-53
2023/04/04 10:57:10;;;;;;;;;;;;;;;10.57;71.85;94080.78;4937425;29;1914;-54
2023/04/04 10:59:55;;;;;;;;;;;;;;;10.74;71.28;94092.94;4937656;29;1157;-54
2023/04/04 11:02:40;;;;;;;;;;;;;;;10.76;68.35;94080.22;4937529;29;1059;-54
2023/04/04 11:05:27;;;;;;;;;;;;;;;10.81;68.01;94090.34;4937284;29;1122;-54
2023/04/04 11:07:55;;;;;;;;;;;;;;;10.70;68.18;94095.16;4927696;29;1322;-54
2023/04/04 11:10:26;;;;;;;;;;;;;;;10.63;68.44;94088.91;4956519;29;1046;-54
2023/04/04 11:12:54;;;;;;;;;;;;;;;10.58;68.13;94093.97;4956588;29;1112;-54
2023/04/04 11:15:20;;;;;;;;;;;;;;;10.39;69.52;94084.69;4956206;29;1067;-53
2023/04/04 11:17:51;;;;;;;;;;;;;;;10.42;69.81;94097.69;4956166;29;1995;-53
2023/04/04 11:20:19;;;;;;;;;;;;;;;10.49;69.58;94095.94;4956088;29;1051;-54
2023/04/04 11:22:48;;;;;;;;;;;;;;;10.64;69.52;94098.59;4956170;29;1059;-53
2023/04/04 11:25:23;;;;;;;;;;;;;;;10.54;68.70;94106.06;4956020;29;1035;-54
2023/04/04 11:27:53;;;;;;;;;;;;;;;10.60;68.00;94096.47;4955962;29;1113;-54
2023/04/04 11:30:19;;;;;;;;;;;;;;;10.63;68.85;94096.94;4955862;29;1022;-54
2023/04/04 11:32:49;;;;;;;;;;;;;;;10.67;67.74;94102.72;4956267;29;1059;-54
2023/04/04 11:35:15;;;;;;;;;;;;;;;10.67;67.94;94100.88;4956027;29;1042;-54
2023/04/04 11:37:51;;;;;;;;;;;;;;;10.65;68.16;94100.25;4955175;28;1903;-54
2023/04/04 11:40:17;;;;;;;;;;;;;;;10.59;66.49;94106.34;4955910;29;1034;-55
2023/04/04 11:42:44;;;;;;;;;;;;;;;10.61;67.52;94109.66;4955807;29;1115;-54
2023/04/04 11:45:17;;;;;;;;;;;;;;;10.73;67.44;94104.66;4955717;29;1853;-55
2023/04/04 11:47:47;;;;;;;;;;;;;;;10.78;67.67;94101.44;4955838;29;1052;-55
2023/04/04 11:50:14;;;;;;;;;;;;;;;10.93;67.91;94097.69;4956039;29;1031;-55
2023/04/04 11:52:41;;;;;;;;;;;;;;;11.07;67.08;94098.66;4955989;29;1014;-54
2023/04/04 11:55:18;;;;;;;;;;;;;;;11.05;65.74;94103.38;4955603;29;1592;-54
2023/04/04 11:57:50;;;;;;;;;;;;;;;10.88;66.48;94104.63;4955544;29;1988;-54
2023/04/04 12:00:29;;;;;;;;;;;;;;;10.86;66.88;94098.63;4955827;29;964;-54
2023/04/04 12:02:56;;;;;;;;;;;;;;;10.81;67.02;94095.69;4955564;29;1113;-54
2023/04/04 12:05:22;;;;;;;;;;;;;;;10.97;65.55;94098.16;4955723;29;1044;-54
2023/04/04 12:07:51;;;;;;;;;;;;;;;11.14;66.12;94102.22;4955833;29;1377;-54
2023/04/04 12:10:17;;;;;;;;;;;;;;;11.29;64.89;94099.50;4936094;29;1204;-54
2023/04/04 12:12:46;;;;;;;;;;;;;;;11.28;67.08;94099.69;4936348;29;1047;-54
2023/04/04 12:15:13;;;;;;;;;;;;;;;11.27;64.72;94100.72;4936367;29;1052;-54
2023/04/04 12:17:40;;;;;;;;;;;;;;;11.07;65.50;94095.97;4936339;29;1995;-54
2023/04/04 12:20:09;;;;;;;;;;;;;;;11.09;64.44;94101.97;4936277;29;1138;-54
2023/04/04 12:22:35;;;;;;;;;;;;;;;11.16;64.56;94106.56;4936029;29;1030;-54
2023/04/04 12:25:02;;;;;;;;;;;;;;;11.21;63.82;94096.09;4919242;29;1043;-54
2023/04/04 12:27:29;;;;;;;;;;;;;;;11.06;62.84;94101.50;4935995;29;1102;-54
2023/04/04 12:29:55;;;;;;;;;;;;;;;11.10;64.36;94108.97;4936174;29;1090;-54
2023/04/04 12:32:21;;;;;;;;;;;;;;;10.97;63.27;94108.03;4936129;29;1217;-54
2023/04/04 12:34:48;;;;;;;;;;;;;;;10.85;64.67;94110.34;4936372;29;1034;-54
2023/04/04 12:37:17;;;;;;;;;;;;;;;10.74;64.51;94107.13;4935822;29;1997;-54
2023/04/04 12:39:51;;;;;;;;;;;;;;;10.86;65.21;94101.31;4936225;29;1059;-54
2023/04/04 12:42:24;;;;;;;;;;;;;;;10.96;63.74;94107.16;4936148;29;999;-54
2023/04/04 12:44:51;;;;;;;;;;;;;;;10.81;65.04;94114.41;4936031;29;1502;-54
2023/04/04 12:47:18;;;;;;;;;;;;;;;10.73;65.25;94113.50;4936139;29;1004;-54
2023/04/04 12:49:49;;;;;;;;;;;;;;;10.69;65.70;94111.41;4939717;29;1188;-54
2023/04/04 12:52:36;;;;;;;;;;;;;;;10.65;66.31;94112.78;4940106;29;1015;-54
2023/04/04 12:55:08;;;;;;;;;;;;;;;10.69;66.11;94109.53;4939672;29;1934;-54
2023/04/04 12:57:35;;;;;;;;;;;;;;;10.74;64.81;94111.66;4939679;29;1903;-54
2023/04/04 13:00:03;;;;;;;;;;;;;;;10.66;64.85;94112.59;4939748;29;936;-54
2023/04/04 13:02:29;;;;;;;;;;;;;;;10.54;66.39;94117.56;4939920;29;1192;-54
2023/04/04 13:04:57;;;;;;;;;;;;;;;10.68;65.19;94115.91;4939811;29;1254;-54
2023/04/04 13:07:24;;;;;;;;;;;;;;;10.76;63.57;94114.97;4939786;29;1054;-54
2023/04/04 13:09:52;;;;;;;;;;;;;;;10.77;65.45;94113.13;4955186;29;1153;-54